Ellenville, New York
Current Conditions -  °F | °C
As of 3:54 PM on Friday 19 Dec 2014 (Local Time) from KMGJ Reporting Station
Overcast Overcast  
Wind Chill: 23°   Ceiling: 3400
Heat Index: 33°   Visibility: 10mi
Dew Point: 20°   Wind: 15mph
Humidity: 59%   Direction: 310°NW
Pressure: 30.06"   Gusts: NA
Location:  41.72°N, 74.4°W
Report Text: KMGJ 192054Z AUTO 31013KT 10SM OVC034 01/M07 A3006 RMK AO2 SLP183 T00061067 51015 TSNO
Loading
Personal Weather Stations






























Interactive Weather Map New forecast layout! Learn more

10-Day Weather Forecast

Advertisements
Track Severe Weather on mobile